Tuesday, January 16, 2018, 6:53 AM EST
Back to Local

KNEL, Lakehurst Naval Air Station

Location: Lakehurst, NJ, United States Lat: 40.033
Local Time: 6:53 AM EST (11:53 GMT) Lon: -74.317
Time Zone: US/Eastern Elev: 101 ft

Show me the last for .
Show Coded

Time T Td Feel RH Dir Speed Gust Alt SLP Vis Weather Sky Remarks
2018-01-16 06:00 28 23 - 81 - Calm - 30.47 30.47 10 OVC031 None
2018-01-16 05:06 27 22 22 80 60° 5 - 30.47 30.47 10 FEW024 OVC032 None
2018-01-16 05:00 27 21 21 79 Variable 5 - 30.47 - 10 SCT024 OVC032 None
2018-01-16 04:00 27 22 - 80 - Calm - 30.47 30.47 10 OVC017 None
2018-01-16 03:00 27 23 20 84 350° 6 - 30.47 30.46 10 OVC017 None
2018-01-16 02:00 27 23 23 84 Variable 3 - 30.46 30.46 10 OVC018 None
2018-01-16 01:00 28 24 - 84 - Calm - 30.45 30.45 10 OVC016 6-hr Min Temp (1am): 27.0°F
6-hr Max Temp (1am): 30.0°F
2018-01-16 00:00 28 24 24 84 10° 3 - 30.45 30.45 10 OVC016 24-hr Min Temp (12am): 28.0°F
24-hr Max Temp (12am): 28.0°F
2018-01-15 23:00 29 25 24 84 50° 5 - 30.46 30.45 10 OVC015 None
2018-01-15 22:00 30 25 22 81 70° 8 - 30.47 30.47 10 OVC016 None
2018-01-15 21:00 29 25 22 84 60° 7 - 30.48 30.48 10 OVC017 None
2018-01-15 20:00 30 25 22 81 60° 8 - 30.49 30.49 10 OVC018 None
2018-01-15 19:00 30 24 22 78 70° 8 - 30.50 30.50 10 OVC019 6-hr Min Temp (7pm): 30.0°F
6-hr Max Temp (7pm): 30.9°F
2018-01-15 18:00 30 24 22 78 90° 8 - 30.49 30.49 10 OVC017 None
2018-01-15 17:00 30 23 21 74 70° 12 - 30.50 30.50 10 OVC018 None
2018-01-15 16:00 30 23 22 74 70° 9 - 30.49 30.49 10 OVC018 None
2018-01-15 15:00 30 23 21 74 60° 10 - 30.49 30.49 10 OVC019 None
2018-01-15 14:00 31 23 22 72 70° 12 - 30.49 30.48 10 OVC019 None
2018-01-15 13:00 31 23 21 72 70° 14 - 30.50 30.50 10 OVC018 6-hr Min Temp (1pm): 21.0°F
6-hr Max Temp (1pm): 33.1°F
2018-01-15 12:00 31 23 22 72 80° 12 - 30.54 30.53 10 OVC018 None
2018-01-15 11:00 31 22 19 68 70° 14 20 30.56 30.56 10 BKN021 None
2018-01-15 10:57 30 21 18 68 50° 10 17 30.56 - 10 BKN023 None
2018-01-15 10:00 31 22 18 68 70° 13 22 30.58 30.58 10 BKN022 None
2018-01-15 09:00 28 21 20 74 50° 8 - 30.59 30.59 10 OVC018 None
2018-01-15 08:00 23 16 17 74 20° 5 - 30.58 30.58 10 OVC015 None
2018-01-15 07:00 21 13 13 70 40° 6 - 30.59 30.59 10 OVC017 6-hr Min Temp (7am): 14.0°F
6-hr Max Temp (7am): 21.0°F

Support USWX by starting your Amazon purchase here.